Camellia — VRCP9 — position and weather

sailwx.info

Track history (hours):
 
Tides and Currents Weather Stations Pressure Air Temp Water Temp Dewpoint Dewpoint Depression Visibility Wind Speed Wind Dir Waves Ship Positions

Camellia

Last reported at 2017-Aug-21 06:13 UTC. Time now 2017-Aug-21 06:32 UTC.
Position N 51°01' E 002°11'.

Length 222 m; draft 8.9 m.

Type: Ship (hazmat cat C). MMSI: 477791900.

Date/timePositionNaut miles runAvg speedWind from/ knotsBaromVisibWave heightAir tempDewpointWater temp
2017-Aug-21 06:13N 51°01' E 002°11'0 0.0
2017-Aug-21 05:52N 51°01' E 002°11'0 0.0
2017-Aug-21 05:13N 51°01' E 002°11'0 0.1
2017-Aug-21 04:58N 51°01' E 002°11'0 0.0
2017-Aug-21 04:28N 51°01' E 002°11'0 0.0
2017-Aug-21 03:58N 51°01' E 002°11'0 0.0
2017-Aug-21 03:29N 51°01' E 002°11'0 0.8
2017-Aug-21 03:01N 51°01' E 002°11'2 4.0
2017-Aug-21 02:31N 51°03' E 002°09'510.9
2017-Aug-21 02:00N 51°02' E 002°00'714.7
2017-Aug-21 01:30N 51°02' E 001°49'5 9.6
2017-Aug-21 01:00N 51°01' E 001°41'1120.0
2017-Aug-21 00:28N 50°53' E 001°29'6418.0
2017-Aug-20 20:54N 50°19' E 000°04'819.4
2017-Aug-20 20:30N 50°17' W 000°08'2320.1
2017-Aug-20 19:22N 50°11' W 000°43'720.6
2017-Aug-20 19:00N 50°09' W 000°54'1020.9
2017-Aug-20 18:31N 50°06' W 001°09'1020.9
2017-Aug-20 18:00N 50°04' W 001°25'1020.9
2017-Aug-20 17:30N 50°01' W 001°41'1020.5
2017-Aug-20 17:01N 49°58' W 001°56'1019.8
2017-Aug-20 16:30N 49°56' W 002°11'2518.5
2017-Aug-20 15:08N 49°49' W 002°49'218.7
2017-Aug-20 15:00N 49°48' W 002°53'1719.1
2017-Aug-20 14:06N 49°44' W 003°18'219.0
2017-Aug-20 14:00N 49°43' W 003°21'918.7
2017-Aug-20 13:30N 49°41' W 003°35'918.6
2017-Aug-20 13:00N 49°39' W 003°49'97919.0
2017-Aug-18 09:20N 43°06' W 025°29'2318.9
2017-Aug-18 08:07N 42°54' W 025°56'219.0
2017-Aug-18 08:00N 42°53' W 025°59'1019.3
2017-Aug-18 07:29N 42°48' W 026°11'3219.0
2017-Aug-18 05:47N 42°32' W 026°49'518.7
2017-Aug-18 05:30N 42°29' W 026°55'1119.2
2017-Aug-18 04:56N 42°24' W 027°07'6219.1
2017-Aug-18 01:41N 41°52' W 028°20'319.0
2017-Aug-18 01:30N 41°50' W 028°24'1219.2
2017-Aug-18 00:51N 41°44' W 028°38'1019.4
2017-Aug-18 00:21N 41°39' W 028°49'819.1
2017-Aug-17 23:57N 41°35' W 028°58'2719.1
2017-Aug-17 22:34N 41°22' W 029°29'218.6
2017-Aug-17 22:27N 41°21' W 029°31'819.1
2017-Aug-17 22:00N 41°17' W 029°41'919.0
2017-Aug-17 21:30N 41°12' W 029°52'919.0
2017-Aug-17 21:00N 41°07' W 030°02'1019.2
2017-Aug-17 20:30N 41°01' W 030°13'918.8
2017-Aug-17 20:00N 40°55' W 030°23'919.1
2017-Aug-17 19:30N 40°49' W 030°32'1019.4
2017-Aug-17 19:01N 40°44' W 030°43'1019.4
2017-Aug-17 18:30N 40°38' W 030°53'1019.4
2017-Aug-17 18:00N 40°32' W 031°03'1119.5
2017-Aug-17 17:28N 40°26' W 031°14'1019.8
2017-Aug-17 16:56N 40°19' W 031°25'819.5
2017-Aug-17 16:31N 40°14' W 031°34'1119.5
2017-Aug-17 15:57N 40°08' W 031°46'919.6
2017-Aug-17 15:30N 40°02' W 031°54'1019.4
2017-Aug-17 15:00N 39°56' W 032°04'1019.4
2017-Aug-17 14:30N 39°51' W 032°15'1119.2
2017-Aug-17 13:57N 39°44' W 032°26'  
2017-Aug-13 02:33N 16°06' W 061°12'118.8
2017-Aug-13 02:30N 16°06' W 061°13'918.7
2017-Aug-13 02:00N 16°08' W 061°22'816.7
2017-Aug-13 01:30N 16°09' W 061°31'5 9.1
2017-Aug-13 01:00N 16°13' W 061°32'1 1.1
2017-Aug-13 00:30N 16°14' W 061°33'0 0.0
2017-Aug-12 23:57N 16°14' W 061°33'0 0.0
2017-Aug-12 23:30N 16°14' W 061°33'0 0.0
2017-Aug-12 22:57N 16°14' W 061°33'0 0.0
2017-Aug-12 22:27N 16°14' W 061°33'0 0.0
2017-Aug-12 21:48N 16°14' W 061°33'0 0.0
2017-Aug-12 21:12N 16°14' W 061°33'0 0.0
2017-Aug-12 21:00N 16°14' W 061°33'0 0.0
2017-Aug-12 20:24N 16°14' W 061°33'0 0.0
2017-Aug-12 20:00N 16°14' W 061°33'0 0.0
2017-Aug-12 19:24N 16°14' W 061°33'0 0.0
2017-Aug-12 19:00N 16°14' W 061°33'0 0.0
2017-Aug-12 18:27N 16°14' W 061°33'0 0.0
2017-Aug-12 18:00N 16°14' W 061°33'0 0.0
2017-Aug-12 17:30N 16°14' W 061°33'0 0.0
2017-Aug-12 17:00N 16°14' W 061°33'0 0.0
2017-Aug-12 16:27N 16°14' W 061°33'0 0.0
2017-Aug-12 15:54N 16°14' W 061°33'0 0.0
2017-Aug-12 15:27N 16°14' W 061°33'0 0.0
2017-Aug-12 15:00N 16°14' W 061°33'0 0.0
2017-Aug-12 14:29N 16°14' W 061°33'0 0.0
2017-Aug-12 13:59N 16°14' W 061°33'0 0.0
2017-Aug-12 13:29N 16°14' W 061°33'0 0.0
2017-Aug-12 12:56N 16°14' W 061°33'0 0.0
2017-Aug-12 12:29N 16°14' W 061°33'0 0.0
2017-Aug-12 11:59N 16°14' W 061°33'0 0.0
2017-Aug-12 11:29N 16°14' W 061°33'0 0.0
2017-Aug-12 10:59N 16°14' W 061°33'0 0.0
2017-Aug-12 10:29N 16°14' W 061°33'0 0.0
2017-Aug-12 09:59N 16°14' W 061°33'0 0.0
2017-Aug-12 09:30N 16°14' W 061°33'1 2.0
2017-Aug-12 09:01N 16°13' W 061°32'4 8.7
2017-Aug-12 08:30N 16°09' W 061°30'3 5.8
2017-Aug-12 08:00N 16°07' W 061°28'2 4.6
2017-Aug-12 07:30N 16°05' W 061°28'3215.8
2017-Aug-12 05:27N 15°33' W 061°32'4917.8
2017-Aug-12 02:42N 14°46' W 061°17'317.9
2017-Aug-12 02:31N 14°42' W 061°16'816.6
2017-Aug-12 02:01N 14°36' W 061°11'713.6
2017-Aug-12 01:30N 14°35' W 061°04'1 1.8
2017-Aug-12 01:00N 14°36' W 061°03'0 0.0
2017-Aug-12 00:30N 14°36' W 061°03'0 0.0
2017-Aug-11 23:39N 14°36' W 061°03'0 0.0
2017-Aug-11 23:30N 14°36' W 061°03'0 0.0
2017-Aug-11 22:57N 14°36' W 061°03'0 0.0
2017-Aug-11 22:24N 14°36' W 061°03'0 0.0
2017-Aug-11 21:57N 14°36' W 061°03'0 0.0
2017-Aug-11 21:30N 14°36' W 061°03'0 0.0
2017-Aug-11 21:00N 14°36' W 061°03'0 0.0
2017-Aug-11 20:30N 14°36' W 061°03'0 0.0
2017-Aug-11 20:00N 14°36' W 061°03'0 0.0
2017-Aug-11 19:30N 14°36' W 061°03'0 0.0
2017-Aug-11 18:57N 14°36' W 061°03'0 0.0
2017-Aug-11 18:27N 14°36' W 061°03'0 0.0
2017-Aug-11 18:00N 14°36' W 061°03'0 0.0
2017-Aug-11 17:30N 14°36' W 061°03'0 0.0
2017-Aug-11 16:56N 14°36' W 061°03'0 0.0
2017-Aug-11 16:29N 14°36' W 061°03'0 0.0
2017-Aug-11 15:59N 14°36' W 061°03'0 0.0
2017-Aug-11 15:29N 14°36' W 061°03'0 0.0
2017-Aug-11 14:59N 14°36' W 061°03'0 0.0
2017-Aug-11 14:29N 14°36' W 061°03'0 0.0
2017-Aug-11 13:26N 14°36' W 061°03'0 0.0
2017-Aug-11 12:59N 14°36' W 061°03'0 0.0
2017-Aug-11 12:29N 14°36' W 061°03'0 0.0
2017-Aug-11 11:59N 14°36' W 061°03'0 0.0
2017-Aug-11 11:29N 14°36' W 061°03'0 0.0
2017-Aug-11 10:56N 14°36' W 061°03'0 0.0
2017-Aug-11 10:26N 14°36' W 061°03'0 0.0
2017-Aug-11 09:59N 14°36' W 061°03'0 0.0
2017-Aug-11 09:29N 14°36' W 061°03'0 0.0
2017-Aug-11 08:59N 14°36' W 061°03'0 0.0
2017-Aug-11 08:29N 14°36' W 061°03'0 0.0
2017-Aug-11 07:56N 14°36' W 061°03'0 0.0
2017-Aug-11 07:29N 14°36' W 061°03'0 0.0
2017-Aug-11 06:59N 14°36' W 061°03'0 0.0
2017-Aug-11 06:26N 14°36' W 061°03'  
Track history (hours):
 
Tides and Currents Weather Stations Pressure Air Temp Water Temp Dewpoint Dewpoint Depression Visibility Wind Speed Wind Dir Waves Ship Positions

Camellia

Last reported at 2017-Aug-21 06:13 UTC. Time now 2017-Aug-21 06:32 UTC.
Position N 51°01' E 002°11'.

Length 222 m; draft 8.9 m.

Type: Ship (hazmat cat C). MMSI: 477791900.

Date/timePositionNaut miles runAvg speedWind from/ knotsBaromVisibWave heightAir tempDewpointWater temp
2017-Aug-21 06:13N 51°01' E 002°11'0 0.0
2017-Aug-21 05:52N 51°01' E 002°11'0 0.0
2017-Aug-21 05:13N 51°01' E 002°11'0 0.1
2017-Aug-21 04:58N 51°01' E 002°11'0 0.0
2017-Aug-21 04:28N 51°01' E 002°11'0 0.0
2017-Aug-21 03:58N 51°01' E 002°11'0 0.0
2017-Aug-21 03:29N 51°01' E 002°11'0 0.8
2017-Aug-21 03:01N 51°01' E 002°11'2 4.0
2017-Aug-21 02:31N 51°03' E 002°09'510.9
2017-Aug-21 02:00N 51°02' E 002°00'714.7
2017-Aug-21 01:30N 51°02' E 001°49'5 9.6
2017-Aug-21 01:00N 51°01' E 001°41'1120.0
2017-Aug-21 00:28N 50°53' E 001°29'6418.0
2017-Aug-20 20:54N 50°19' E 000°04'819.4
2017-Aug-20 20:30N 50°17' W 000°08'2320.1
2017-Aug-20 19:22N 50°11' W 000°43'720.6
2017-Aug-20 19:00N 50°09' W 000°54'1020.9
2017-Aug-20 18:31N 50°06' W 001°09'1020.9
2017-Aug-20 18:00N 50°04' W 001°25'1020.9
2017-Aug-20 17:30N 50°01' W 001°41'1020.5
2017-Aug-20 17:01N 49°58' W 001°56'1019.8
2017-Aug-20 16:30N 49°56' W 002°11'2518.5
2017-Aug-20 15:08N 49°49' W 002°49'218.7
2017-Aug-20 15:00N 49°48' W 002°53'1719.1
2017-Aug-20 14:06N 49°44' W 003°18'219.0
2017-Aug-20 14:00N 49°43' W 003°21'918.7
2017-Aug-20 13:30N 49°41' W 003°35'918.6
2017-Aug-20 13:00N 49°39' W 003°49'97919.0
2017-Aug-18 09:20N 43°06' W 025°29'2318.9
2017-Aug-18 08:07N 42°54' W 025°56'219.0
2017-Aug-18 08:00N 42°53' W 025°59'1019.3
2017-Aug-18 07:29N 42°48' W 026°11'3219.0
2017-Aug-18 05:47N 42°32' W 026°49'518.7
2017-Aug-18 05:30N 42°29' W 026°55'1119.2
2017-Aug-18 04:56N 42°24' W 027°07'6219.1
2017-Aug-18 01:41N 41°52' W 028°20'319.0
2017-Aug-18 01:30N 41°50' W 028°24'1219.2
2017-Aug-18 00:51N 41°44' W 028°38'1019.4
2017-Aug-18 00:21N 41°39' W 028°49'819.1
2017-Aug-17 23:57N 41°35' W 028°58'2719.1
2017-Aug-17 22:34N 41°22' W 029°29'218.6
2017-Aug-17 22:27N 41°21' W 029°31'819.1
2017-Aug-17 22:00N 41°17' W 029°41'919.0
2017-Aug-17 21:30N 41°12' W 029°52'919.0
2017-Aug-17 21:00N 41°07' W 030°02'1019.2
2017-Aug-17 20:30N 41°01' W 030°13'918.8
2017-Aug-17 20:00N 40°55' W 030°23'919.1
2017-Aug-17 19:30N 40°49' W 030°32'1019.4
2017-Aug-17 19:01N 40°44' W 030°43'1019.4
2017-Aug-17 18:30N 40°38' W 030°53'1019.4
2017-Aug-17 18:00N 40°32' W 031°03'1119.5
2017-Aug-17 17:28N 40°26' W 031°14'1019.8
2017-Aug-17 16:56N 40°19' W 031°25'819.5
2017-Aug-17 16:31N 40°14' W 031°34'1119.5
2017-Aug-17 15:57N 40°08' W 031°46'919.6
2017-Aug-17 15:30N 40°02' W 031°54'1019.4
2017-Aug-17 15:00N 39°56' W 032°04'1019.4
2017-Aug-17 14:30N 39°51' W 032°15'1119.2
2017-Aug-17 13:57N 39°44' W 032°26'  
2017-Aug-13 02:33N 16°06' W 061°12'118.8
2017-Aug-13 02:30N 16°06' W 061°13'918.7
2017-Aug-13 02:00N 16°08' W 061°22'816.7
2017-Aug-13 01:30N 16°09' W 061°31'5 9.1
2017-Aug-13 01:00N 16°13' W 061°32'1 1.1
2017-Aug-13 00:30N 16°14' W 061°33'0 0.0
2017-Aug-12 23:57N 16°14' W 061°33'0 0.0
2017-Aug-12 23:30N 16°14' W 061°33'0 0.0
2017-Aug-12 22:57N 16°14' W 061°33'0 0.0
2017-Aug-12 22:27N 16°14' W 061°33'0 0.0
2017-Aug-12 21:48N 16°14' W 061°33'0 0.0
2017-Aug-12 21:12N 16°14' W 061°33'0 0.0
2017-Aug-12 21:00N 16°14' W 061°33'0 0.0
2017-Aug-12 20:24N 16°14' W 061°33'0 0.0
2017-Aug-12 20:00N 16°14' W 061°33'0 0.0
2017-Aug-12 19:24N 16°14' W 061°33'0 0.0
2017-Aug-12 19:00N 16°14' W 061°33'0 0.0
2017-Aug-12 18:27N 16°14' W 061°33'0 0.0
2017-Aug-12 18:00N 16°14' W 061°33'0 0.0
2017-Aug-12 17:30N 16°14' W 061°33'0 0.0
2017-Aug-12 17:00N 16°14' W 061°33'0 0.0
2017-Aug-12 16:27N 16°14' W 061°33'0 0.0
2017-Aug-12 15:54N 16°14' W 061°33'0 0.0
2017-Aug-12 15:27N 16°14' W 061°33'0 0.0
2017-Aug-12 15:00N 16°14' W 061°33'0 0.0
2017-Aug-12 14:29N 16°14' W 061°33'0 0.0
2017-Aug-12 13:59N 16°14' W 061°33'0 0.0
2017-Aug-12 13:29N 16°14' W 061°33'0 0.0
2017-Aug-12 12:56N 16°14' W 061°33'0 0.0
2017-Aug-12 12:29N 16°14' W 061°33'0 0.0
2017-Aug-12 11:59N 16°14' W 061°33'0 0.0
2017-Aug-12 11:29N 16°14' W 061°33'0 0.0
2017-Aug-12 10:59N 16°14' W 061°33'0 0.0
2017-Aug-12 10:29N 16°14' W 061°33'0 0.0
2017-Aug-12 09:59N 16°14' W 061°33'0 0.0
2017-Aug-12 09:30N 16°14' W 061°33'1 2.0
2017-Aug-12 09:01N 16°13' W 061°32'4 8.7
2017-Aug-12 08:30N 16°09' W 061°30'3 5.8
2017-Aug-12 08:00N 16°07' W 061°28'2 4.6
2017-Aug-12 07:30N 16°05' W 061°28'3215.8
2017-Aug-12 05:27N 15°33' W 061°32'4917.8
2017-Aug-12 02:42N 14°46' W 061°17'317.9
2017-Aug-12 02:31N 14°42' W 061°16'816.6
2017-Aug-12 02:01N 14°36' W 061°11'713.6
2017-Aug-12 01:30N 14°35' W 061°04'1 1.8
2017-Aug-12 01:00N 14°36' W 061°03'0 0.0
2017-Aug-12 00:30N 14°36' W 061°03'0 0.0
2017-Aug-11 23:39N 14°36' W 061°03'0 0.0
2017-Aug-11 23:30N 14°36' W 061°03'0 0.0
2017-Aug-11 22:57N 14°36' W 061°03'0 0.0
2017-Aug-11 22:24N 14°36' W 061°03'0 0.0
2017-Aug-11 21:57N 14°36' W 061°03'0 0.0
2017-Aug-11 21:30N 14°36' W 061°03'0 0.0
2017-Aug-11 21:00N 14°36' W 061°03'0 0.0
2017-Aug-11 20:30N 14°36' W 061°03'0 0.0
2017-Aug-11 20:00N 14°36' W 061°03'0 0.0
2017-Aug-11 19:30N 14°36' W 061°03'0 0.0
2017-Aug-11 18:57N 14°36' W 061°03'0 0.0
2017-Aug-11 18:27N 14°36' W 061°03'0 0.0
2017-Aug-11 18:00N 14°36' W 061°03'0 0.0
2017-Aug-11 17:30N 14°36' W 061°03'0 0.0
2017-Aug-11 16:56N 14°36' W 061°03'0 0.0
2017-Aug-11 16:29N 14°36' W 061°03'0 0.0
2017-Aug-11 15:59N 14°36' W 061°03'0 0.0
2017-Aug-11 15:29N 14°36' W 061°03'0 0.0
2017-Aug-11 14:59N 14°36' W 061°03'0 0.0
2017-Aug-11 14:29N 14°36' W 061°03'0 0.0
2017-Aug-11 13:26N 14°36' W 061°03'0 0.0
2017-Aug-11 12:59N 14°36' W 061°03'0 0.0
2017-Aug-11 12:29N 14°36' W 061°03'0 0.0
2017-Aug-11 11:59N 14°36' W 061°03'0 0.0
2017-Aug-11 11:29N 14°36' W 061°03'0 0.0
2017-Aug-11 10:56N 14°36' W 061°03'0 0.0
2017-Aug-11 10:26N 14°36' W 061°03'0 0.0
2017-Aug-11 09:59N 14°36' W 061°03'0 0.0
2017-Aug-11 09:29N 14°36' W 061°03'0 0.0
2017-Aug-11 08:59N 14°36' W 061°03'0 0.0
2017-Aug-11 08:29N 14°36' W 061°03'0 0.0
2017-Aug-11 07:56N 14°36' W 061°03'0 0.0
2017-Aug-11 07:29N 14°36' W 061°03'0 0.0
2017-Aug-11 06:59N 14°36' W 061°03'0 0.0
2017-Aug-11 06:26N 14°36' W 061°03'  

Dump ship's entire track history